sensor_id;sensor_type;location;lat;lon;timestamp;P1;durP1;ratioP1;P2;durP2;ratioP2
49051;SDS011;34866;48.670;18.260;2024-01-15T00:02:15;13.73;;;6.05;;
49051;SDS011;34866;48.670;18.260;2024-01-15T00:04:41;14.98;;;6.32;;
49051;SDS011;34866;48.670;18.260;2024-01-15T00:07:07;9.48;;;5.63;;
49051;SDS011;34866;48.670;18.260;2024-01-15T00:09:33;11.13;;;5.28;;
49051;SDS011;34866;48.670;18.260;2024-01-15T00:11:59;19.58;;;7.38;;
49051;SDS011;34866;48.670;18.260;2024-01-15T00:14:25;11.25;;;5.72;;
49051;SDS011;34866;48.670;18.260;2024-01-15T00:16:51;6.55;;;4.47;;
49051;SDS011;34866;48.670;18.260;2024-01-15T00:19:19;33.15;;;14.20;;
49051;SDS011;34866;48.670;18.260;2024-01-15T00:21:46;10.48;;;6.35;;
49051;SDS011;34866;48.670;18.260;2024-01-15T00:24:12;21.95;;;8.32;;
49051;SDS011;34866;48.670;18.260;2024-01-15T00:26:37;13.18;;;7.03;;
49051;SDS011;34866;48.670;18.260;2024-01-15T00:29:03;12.20;;;8.02;;
49051;SDS011;34866;48.670;18.260;2024-01-15T00:31:29;13.50;;;9.25;;
49051;SDS011;34866;48.670;18.260;2024-01-15T00:33:55;17.58;;;8.82;;
49051;SDS011;34866;48.670;18.260;2024-01-15T00:36:25;10.88;;;6.57;;
49051;SDS011;34866;48.670;18.260;2024-01-15T00:38:51;15.80;;;8.77;;
49051;SDS011;34866;48.670;18.260;2024-01-15T00:41:17;17.80;;;8.30;;
49051;SDS011;34866;48.670;18.260;2024-01-15T00:43:44;23.20;;;7.20;;
49051;SDS011;34866;48.670;18.260;2024-01-15T00:46:10;14.30;;;6.47;;
49051;SDS011;34866;48.670;18.260;2024-01-15T00:48:36;9.75;;;6.45;;
49051;SDS011;34866;48.670;18.260;2024-01-15T00:51:02;15.10;;;6.72;;
49051;SDS011;34866;48.670;18.260;2024-01-15T00:53:29;11.77;;;6.28;;
49051;SDS011;34866;48.670;18.260;2024-01-15T00:55:54;13.07;;;8.30;;
49051;SDS011;34866;48.670;18.260;2024-01-15T00:58:20;19.95;;;7.10;;
49051;SDS011;34866;48.670;18.260;2024-01-15T01:00:46;10.40;;;6.18;;
49051;SDS011;34866;48.670;18.260;2024-01-15T01:03:11;10.13;;;5.40;;
49051;SDS011;34866;48.670;18.260;2024-01-15T01:05:37;10.77;;;5.38;;
49051;SDS011;34866;48.670;18.260;2024-01-15T01:08:03;14.35;;;6.03;;
49051;SDS011;34866;48.670;18.260;2024-01-15T01:10:29;9.45;;;4.82;;
49051;SDS011;34866;48.670;18.260;2024-01-15T01:12:55;10.75;;;5.63;;
49051;SDS011;34866;48.670;18.260;2024-01-15T01:15:21;10.77;;;6.25;;
49051;SDS011;34866;48.670;18.260;2024-01-15T01:17:47;11.38;;;6.15;;
49051;SDS011;34866;48.670;18.260;2024-01-15T01:20:12;14.90;;;8.05;;
49051;SDS011;34866;48.670;18.260;2024-01-15T01:22:40;14.48;;;7.22;;
49051;SDS011;34866;48.670;18.260;2024-01-15T01:25:06;12.43;;;6.78;;
49051;SDS011;34866;48.670;18.260;2024-01-15T01:27:32;13.93;;;6.45;;
49051;SDS011;34866;48.670;18.260;2024-01-15T01:29:57;11.13;;;5.88;;
49051;SDS011;34866;48.670;18.260;2024-01-15T01:32:23;12.70;;;7.40;;
49051;SDS011;34866;48.670;18.260;2024-01-15T01:34:49;13.20;;;6.60;;
49051;SDS011;34866;48.670;18.260;2024-01-15T01:37:14;15.10;;;6.30;;
49051;SDS011;34866;48.670;18.260;2024-01-15T01:39:40;20.73;;;7.18;;
49051;SDS011;34866;48.670;18.260;2024-01-15T01:42:07;10.05;;;5.30;;
49051;SDS011;34866;48.670;18.260;2024-01-15T01:44:33;17.65;;;12.52;;
49051;SDS011;34866;48.670;18.260;2024-01-15T01:46:59;19.33;;;10.73;;
49051;SDS011;34866;48.670;18.260;2024-01-15T01:49:28;10.35;;;8.75;;
49051;SDS011;34866;48.670;18.260;2024-01-15T01:51:56;22.42;;;10.10;;
49051;SDS011;34866;48.670;18.260;2024-01-15T01:54:23;13.30;;;9.80;;
49051;SDS011;34866;48.670;18.260;2024-01-15T01:56:51;21.13;;;10.80;;
49051;SDS011;34866;48.670;18.260;2024-01-15T01:59:17;17.08;;;7.97;;
49051;SDS011;34866;48.670;18.260;2024-01-15T02:01:44;14.43;;;9.05;;
49051;SDS011;34866;48.670;18.260;2024-01-15T02:04:10;14.30;;;7.88;;
49051;SDS011;34866;48.670;18.260;2024-01-15T02:06:36;15.38;;;9.50;;
49051;SDS011;34866;48.670;18.260;2024-01-15T02:09:02;12.13;;;7.45;;
49051;SDS011;34866;48.670;18.260;2024-01-15T02:11:28;10.35;;;9.13;;
49051;SDS011;34866;48.670;18.260;2024-01-15T02:13:54;22.83;;;8.15;;
49051;SDS011;34866;48.670;18.260;2024-01-15T02:16:20;15.82;;;8.60;;
49051;SDS011;34866;48.670;18.260;2024-01-15T02:18:46;13.25;;;8.40;;
49051;SDS011;34866;48.670;18.260;2024-01-15T02:21:11;16.17;;;7.78;;
49051;SDS011;34866;48.670;18.260;2024-01-15T02:23:37;18.15;;;8.35;;
49051;SDS011;34866;48.670;18.260;2024-01-15T02:26:04;27.85;;;7.47;;
49051;SDS011;34866;48.670;18.260;2024-01-15T02:28:30;9.15;;;7.25;;
49051;SDS011;34866;48.670;18.260;2024-01-15T02:30:57;14.00;;;7.60;;
49051;SDS011;34866;48.670;18.260;2024-01-15T02:33:23;12.40;;;7.65;;
49051;SDS011;34866;48.670;18.260;2024-01-15T02:35:48;14.10;;;5.03;;
49051;SDS011;34866;48.670;18.260;2024-01-15T02:38:17;8.23;;;5.57;;
49051;SDS011;34866;48.670;18.260;2024-01-15T02:40:44;4.07;;;3.65;;
49051;SDS011;34866;48.670;18.260;2024-01-15T02:43:09;8.20;;;5.30;;
49051;SDS011;34866;48.670;18.260;2024-01-15T02:45:35;11.80;;;6.57;;
49051;SDS011;34866;48.670;18.260;2024-01-15T02:48:01;10.70;;;6.00;;
49051;SDS011;34866;48.670;18.260;2024-01-15T02:50:26;10.85;;;6.78;;
49051;SDS011;34866;48.670;18.260;2024-01-15T02:52:52;7.82;;;4.78;;
49051;SDS011;34866;48.670;18.260;2024-01-15T02:55:18;9.38;;;5.38;;
49051;SDS011;34866;48.670;18.260;2024-01-15T02:57:44;9.95;;;6.50;;
49051;SDS011;34866;48.670;18.260;2024-01-15T03:00:10;13.63;;;6.57;;
49051;SDS011;34866;48.670;18.260;2024-01-15T03:02:37;12.65;;;6.30;;
49051;SDS011;34866;48.670;18.260;2024-01-15T03:05:05;11.02;;;4.63;;
49051;SDS011;34866;48.670;18.260;2024-01-15T03:07:34;8.73;;;6.00;;
49051;SDS011;34866;48.670;18.260;2024-01-15T03:10:00;10.00;;;5.90;;
49051;SDS011;34866;48.670;18.260;2024-01-15T03:12:26;10.90;;;6.93;;
49051;SDS011;34866;48.670;18.260;2024-01-15T03:14:52;13.05;;;5.10;;
49051;SDS011;34866;48.670;18.260;2024-01-15T03:17:18;12.35;;;8.43;;
49051;SDS011;34866;48.670;18.260;2024-01-15T03:19:44;10.13;;;6.15;;
49051;SDS011;34866;48.670;18.260;2024-01-15T03:22:09;7.88;;;5.10;;
49051;SDS011;34866;48.670;18.260;2024-01-15T03:24:35;10.75;;;5.63;;
49051;SDS011;34866;48.670;18.260;2024-01-15T03:27:01;12.88;;;6.32;;
49051;SDS011;34866;48.670;18.260;2024-01-15T03:29:27;9.27;;;5.55;;
49051;SDS011;34866;48.670;18.260;2024-01-15T03:31:53;6.13;;;4.97;;
49051;SDS011;34866;48.670;18.260;2024-01-15T03:34:19;8.20;;;6.53;;
49051;SDS011;34866;48.670;18.260;2024-01-15T03:36:44;7.18;;;5.68;;
49051;SDS011;34866;48.670;18.260;2024-01-15T03:39:10;11.82;;;5.40;;
49051;SDS011;34866;48.670;18.260;2024-01-15T03:41:36;17.48;;;6.63;;
49051;SDS011;34866;48.670;18.260;2024-01-15T03:44:02;17.85;;;6.78;;
49051;SDS011;34866;48.670;18.260;2024-01-15T03:46:27;10.75;;;6.53;;
49051;SDS011;34866;48.670;18.260;2024-01-15T03:48:53;13.63;;;6.88;;
49051;SDS011;34866;48.670;18.260;2024-01-15T03:51:19;7.60;;;6.20;;
49051;SDS011;34866;48.670;18.260;2024-01-15T03:53:45;8.13;;;5.82;;
49051;SDS011;34866;48.670;18.260;2024-01-15T03:56:11;8.52;;;6.38;;
49051;SDS011;34866;48.670;18.260;2024-01-15T03:58:37;8.20;;;5.28;;
49051;SDS011;34866;48.670;18.260;2024-01-15T04:01:03;12.93;;;7.85;;
49051;SDS011;34866;48.670;18.260;2024-01-15T04:03:28;12.52;;;7.07;;
49051;SDS011;34866;48.670;18.260;2024-01-15T04:05:54;15.43;;;6.93;;
49051;SDS011;34866;48.670;18.260;2024-01-15T04:08:21;10.63;;;7.03;;
49051;SDS011;34866;48.670;18.260;2024-01-15T04:10:47;11.77;;;6.60;;
49051;SDS011;34866;48.670;18.260;2024-01-15T04:13:13;12.18;;;7.35;;
49051;SDS011;34866;48.670;18.260;2024-01-15T04:15:38;17.42;;;7.07;;
49051;SDS011;34866;48.670;18.260;2024-01-15T04:18:04;15.15;;;7.63;;
49051;SDS011;34866;48.670;18.260;2024-01-15T04:20:30;13.27;;;6.88;;
49051;SDS011;34866;48.670;18.260;2024-01-15T04:22:56;10.75;;;6.07;;
49051;SDS011;34866;48.670;18.260;2024-01-15T04:25:21;12.80;;;8.25;;
49051;SDS011;34866;48.670;18.260;2024-01-15T04:27:47;17.45;;;7.50;;
49051;SDS011;34866;48.670;18.260;2024-01-15T04:30:13;9.48;;;6.13;;
49051;SDS011;34866;48.670;18.260;2024-01-15T04:32:38;16.75;;;10.07;;
49051;SDS011;34866;48.670;18.260;2024-01-15T04:35:04;9.90;;;6.25;;
49051;SDS011;34866;48.670;18.260;2024-01-15T04:37:30;11.73;;;7.97;;
49051;SDS011;34866;48.670;18.260;2024-01-15T04:39:55;10.95;;;7.97;;
49051;SDS011;34866;48.670;18.260;2024-01-15T04:42:22;16.00;;;7.60;;
49051;SDS011;34866;48.670;18.260;2024-01-15T04:44:48;17.80;;;9.50;;
49051;SDS011;34866;48.670;18.260;2024-01-15T04:47:14;17.90;;;9.48;;
49051;SDS011;34866;48.670;18.260;2024-01-15T04:49:40;11.27;;;7.13;;
49051;SDS011;34866;48.670;18.260;2024-01-15T04:52:05;12.00;;;7.03;;
49051;SDS011;34866;48.670;18.260;2024-01-15T04:54:31;15.15;;;7.63;;
49051;SDS011;34866;48.670;18.260;2024-01-15T04:56:57;21.88;;;9.50;;
49051;SDS011;34866;48.670;18.260;2024-01-15T04:59:23;19.90;;;8.02;;
49051;SDS011;34866;48.670;18.260;2024-01-15T05:01:49;15.45;;;10.05;;
49051;SDS011;34866;48.670;18.260;2024-01-15T05:04:14;10.75;;;7.50;;
49051;SDS011;34866;48.670;18.260;2024-01-15T05:06:40;22.75;;;8.55;;
49051;SDS011;34866;48.670;18.260;2024-01-15T05:09:06;18.33;;;10.48;;
49051;SDS011;34866;48.670;18.260;2024-01-15T05:11:32;18.23;;;10.82;;
49051;SDS011;34866;48.670;18.260;2024-01-15T05:13:58;18.55;;;8.70;;
49051;SDS011;34866;48.670;18.260;2024-01-15T05:16:23;15.40;;;8.85;;
49051;SDS011;34866;48.670;18.260;2024-01-15T05:18:49;13.85;;;6.68;;
49051;SDS011;34866;48.670;18.260;2024-01-15T05:21:15;18.08;;;9.00;;
49051;SDS011;34866;48.670;18.260;2024-01-15T05:23:41;22.17;;;9.30;;
49051;SDS011;34866;48.670;18.260;2024-01-15T05:26:06;17.45;;;9.32;;
49051;SDS011;34866;48.670;18.260;2024-01-15T05:28:34;14.88;;;10.68;;
49051;SDS011;34866;48.670;18.260;2024-01-15T05:31:00;51.80;;;25.45;;
49051;SDS011;34866;48.670;18.260;2024-01-15T05:33:26;29.42;;;14.27;;
49051;SDS011;34866;48.670;18.260;2024-01-15T05:35:52;35.25;;;16.73;;
49051;SDS011;34866;48.670;18.260;2024-01-15T05:38:20;26.42;;;15.60;;
49051;SDS011;34866;48.670;18.260;2024-01-15T05:40:46;28.63;;;16.02;;
49051;SDS011;34866;48.670;18.260;2024-01-15T05:43:12;19.45;;;14.70;;
49051;SDS011;34866;48.670;18.260;2024-01-15T05:45:42;28.95;;;15.65;;
49051;SDS011;34866;48.670;18.260;2024-01-15T05:48:08;20.38;;;11.35;;
49051;SDS011;34866;48.670;18.260;2024-01-15T05:50:34;18.63;;;11.07;;
49051;SDS011;34866;48.670;18.260;2024-01-15T05:53:00;25.38;;;9.55;;
49051;SDS011;34866;48.670;18.260;2024-01-15T05:55:25;17.92;;;11.20;;
49051;SDS011;34866;48.670;18.260;2024-01-15T05:57:51;21.83;;;11.73;;
49051;SDS011;34866;48.670;18.260;2024-01-15T06:00:17;12.65;;;8.00;;
49051;SDS011;34866;48.670;18.260;2024-01-15T06:02:43;12.27;;;9.38;;
49051;SDS011;34866;48.670;18.260;2024-01-15T06:05:09;18.58;;;9.32;;
49051;SDS011;34866;48.670;18.260;2024-01-15T06:07:35;12.55;;;8.98;;
49051;SDS011;34866;48.670;18.260;2024-01-15T06:10:01;14.90;;;7.90;;
49051;SDS011;34866;48.670;18.260;2024-01-15T06:12:27;14.85;;;8.60;;
49051;SDS011;34866;48.670;18.260;2024-01-15T06:14:53;19.67;;;9.45;;
49051;SDS011;34866;48.670;18.260;2024-01-15T06:17:20;15.90;;;8.93;;
49051;SDS011;34866;48.670;18.260;2024-01-15T06:19:46;18.50;;;11.05;;
49051;SDS011;34866;48.670;18.260;2024-01-15T06:22:11;19.20;;;7.55;;
49051;SDS011;34866;48.670;18.260;2024-01-15T06:24:37;12.57;;;6.63;;
49051;SDS011;34866;48.670;18.260;2024-01-15T06:27:03;19.48;;;9.75;;
49051;SDS011;34866;48.670;18.260;2024-01-15T06:29:28;15.25;;;9.13;;
49051;SDS011;34866;48.670;18.260;2024-01-15T06:31:55;12.15;;;7.63;;
49051;SDS011;34866;48.670;18.260;2024-01-15T06:34:21;16.15;;;8.27;;
49051;SDS011;34866;48.670;18.260;2024-01-15T06:36:46;12.48;;;9.40;;
49051;SDS011;34866;48.670;18.260;2024-01-15T06:39:12;14.38;;;8.75;;
49051;SDS011;34866;48.670;18.260;2024-01-15T06:41:38;12.23;;;7.78;;
49051;SDS011;34866;48.670;18.260;2024-01-15T06:44:09;20.85;;;9.60;;
49051;SDS011;34866;48.670;18.260;2024-01-15T06:46:44;17.60;;;11.65;;
49051;SDS011;34866;48.670;18.260;2024-01-15T06:49:10;18.73;;;9.00;;
49051;SDS011;34866;48.670;18.260;2024-01-15T06:51:36;13.23;;;10.57;;
49051;SDS011;34866;48.670;18.260;2024-01-15T06:54:02;13.07;;;9.40;;
49051;SDS011;34866;48.670;18.260;2024-01-15T06:56:29;45.45;;;12.55;;
49051;SDS011;34866;48.670;18.260;2024-01-15T06:58:56;13.52;;;7.25;;
49051;SDS011;34866;48.670;18.260;2024-01-15T07:01:21;19.75;;;10.68;;
49051;SDS011;34866;48.670;18.260;2024-01-15T07:03:47;20.73;;;10.27;;
49051;SDS011;34866;48.670;18.260;2024-01-15T07:06:13;20.63;;;12.52;;
49051;SDS011;34866;48.670;18.260;2024-01-15T07:08:39;17.30;;;10.68;;
49051;SDS011;34866;48.670;18.260;2024-01-15T07:11:05;26.05;;;7.97;;
49051;SDS011;34866;48.670;18.260;2024-01-15T07:13:31;31.17;;;9.95;;
49051;SDS011;34866;48.670;18.260;2024-01-15T07:15:57;9.82;;;8.43;;
49051;SDS011;34866;48.670;18.260;2024-01-15T07:18:23;13.07;;;7.95;;
49051;SDS011;34866;48.670;18.260;2024-01-15T07:20:49;17.02;;;9.68;;
49051;SDS011;34866;48.670;18.260;2024-01-15T07:23:14;13.55;;;9.07;;
49051;SDS011;34866;48.670;18.260;2024-01-15T07:25:40;18.77;;;7.70;;
49051;SDS011;34866;48.670;18.260;2024-01-15T07:28:06;13.90;;;11.00;;
49051;SDS011;34866;48.670;18.260;2024-01-15T07:30:32;17.67;;;9.38;;
49051;SDS011;34866;48.670;18.260;2024-01-15T07:32:57;19.30;;;9.73;;
49051;SDS011;34866;48.670;18.260;2024-01-15T07:35:23;24.95;;;13.55;;
49051;SDS011;34866;48.670;18.260;2024-01-15T07:37:49;20.65;;;11.00;;
49051;SDS011;34866;48.670;18.260;2024-01-15T07:40:15;19.55;;;9.00;;
49051;SDS011;34866;48.670;18.260;2024-01-15T07:42:41;17.75;;;8.70;;
49051;SDS011;34866;48.670;18.260;2024-01-15T07:45:07;28.83;;;10.45;;
49051;SDS011;34866;48.670;18.260;2024-01-15T07:47:34;12.13;;;8.98;;
49051;SDS011;34866;48.670;18.260;2024-01-15T07:50:00;11.90;;;8.50;;
49051;SDS011;34866;48.670;18.260;2024-01-15T07:52:25;17.48;;;12.35;;
49051;SDS011;34866;48.670;18.260;2024-01-15T07:54:51;15.68;;;8.48;;
49051;SDS011;34866;48.670;18.260;2024-01-15T07:57:17;10.40;;;8.20;;
49051;SDS011;34866;48.670;18.260;2024-01-15T07:59:43;11.02;;;7.57;;
49051;SDS011;34866;48.670;18.260;2024-01-15T08:02:08;23.85;;;8.88;;
49051;SDS011;34866;48.670;18.260;2024-01-15T08:04:36;19.60;;;9.82;;
49051;SDS011;34866;48.670;18.260;2024-01-15T08:07:03;14.52;;;9.68;;
49051;SDS011;34866;48.670;18.260;2024-01-15T08:09:30;22.40;;;8.77;;
49051;SDS011;34866;48.670;18.260;2024-01-15T08:11:56;13.32;;;11.00;;
49051;SDS011;34866;48.670;18.260;2024-01-15T08:14:22;29.25;;;8.95;;
49051;SDS011;34866;48.670;18.260;2024-01-15T08:16:47;23.45;;;10.82;;
49051;SDS011;34866;48.670;18.260;2024-01-15T08:19:13;19.42;;;12.02;;
49051;SDS011;34866;48.670;18.260;2024-01-15T08:21:39;16.42;;;9.40;;
49051;SDS011;34866;48.670;18.260;2024-01-15T08:24:05;15.90;;;10.82;;
49051;SDS011;34866;48.670;18.260;2024-01-15T08:26:31;22.58;;;10.25;;
49051;SDS011;34866;48.670;18.260;2024-01-15T08:28:57;15.75;;;9.63;;
49051;SDS011;34866;48.670;18.260;2024-01-15T08:31:23;11.80;;;8.63;;
49051;SDS011;34866;48.670;18.260;2024-01-15T08:33:49;16.45;;;9.10;;
49051;SDS011;34866;48.670;18.260;2024-01-15T08:36:15;18.05;;;9.13;;
49051;SDS011;34866;48.670;18.260;2024-01-15T08:38:41;23.35;;;8.93;;
49051;SDS011;34866;48.670;18.260;2024-01-15T08:41:07;15.82;;;9.60;;
49051;SDS011;34866;48.670;18.260;2024-01-15T08:43:34;15.10;;;8.18;;
49051;SDS011;34866;48.670;18.260;2024-01-15T08:46:00;20.20;;;8.55;;
49051;SDS011;34866;48.670;18.260;2024-01-15T08:48:26;13.98;;;8.80;;
49051;SDS011;34866;48.670;18.260;2024-01-15T08:50:52;17.83;;;10.65;;
49051;SDS011;34866;48.670;18.260;2024-01-15T08:53:19;23.38;;;9.95;;
49051;SDS011;34866;48.670;18.260;2024-01-15T08:55:45;17.63;;;9.82;;
49051;SDS011;34866;48.670;18.260;2024-01-15T08:58:11;22.90;;;10.05;;
49051;SDS011;34866;48.670;18.260;2024-01-15T09:00:36;12.20;;;9.30;;
49051;SDS011;34866;48.670;18.260;2024-01-15T09:03:02;14.23;;;7.65;;
49051;SDS011;34866;48.670;18.260;2024-01-15T09:05:28;15.93;;;8.63;;
49051;SDS011;34866;48.670;18.260;2024-01-15T09:07:54;21.33;;;11.35;;
49051;SDS011;34866;48.670;18.260;2024-01-15T09:10:21;13.60;;;9.45;;
49051;SDS011;34866;48.670;18.260;2024-01-15T09:12:46;34.67;;;10.15;;
49051;SDS011;34866;48.670;18.260;2024-01-15T09:15:14;18.60;;;9.73;;
49051;SDS011;34866;48.670;18.260;2024-01-15T09:17:40;20.95;;;8.02;;
49051;SDS011;34866;48.670;18.260;2024-01-15T09:20:06;14.63;;;8.07;;
49051;SDS011;34866;48.670;18.260;2024-01-15T09:22:33;19.77;;;7.85;;
49051;SDS011;34866;48.670;18.260;2024-01-15T09:24:58;19.10;;;9.65;;
49051;SDS011;34866;48.670;18.260;2024-01-15T09:27:24;21.75;;;10.65;;
49051;SDS011;34866;48.670;18.260;2024-01-15T09:29:53;13.75;;;7.93;;
49051;SDS011;34866;48.670;18.260;2024-01-15T09:32:18;14.35;;;8.82;;
49051;SDS011;34866;48.670;18.260;2024-01-15T09:34:47;17.92;;;7.07;;
49051;SDS011;34866;48.670;18.260;2024-01-15T09:37:14;16.23;;;8.10;;
49051;SDS011;34866;48.670;18.260;2024-01-15T09:39:41;21.20;;;9.30;;
49051;SDS011;34866;48.670;18.260;2024-01-15T09:42:07;12.30;;;6.78;;
49051;SDS011;34866;48.670;18.260;2024-01-15T09:44:33;19.63;;;7.47;;
49051;SDS011;34866;48.670;18.260;2024-01-15T09:46:59;22.98;;;9.48;;
49051;SDS011;34866;48.670;18.260;2024-01-15T09:49:26;26.98;;;11.63;;
49051;SDS011;34866;48.670;18.260;2024-01-15T09:51:52;24.45;;;8.93;;
49051;SDS011;34866;48.670;18.260;2024-01-15T09:54:19;13.35;;;8.07;;
49051;SDS011;34866;48.670;18.260;2024-01-15T09:56:46;12.80;;;7.30;;
49051;SDS011;34866;48.670;18.260;2024-01-15T09:59:16;16.25;;;8.73;;
49051;SDS011;34866;48.670;18.260;2024-01-15T10:01:43;14.43;;;7.18;;
49051;SDS011;34866;48.670;18.260;2024-01-15T10:04:10;12.68;;;6.57;;
49051;SDS011;34866;48.670;18.260;2024-01-15T10:06:38;20.30;;;7.75;;
49051;SDS011;34866;48.670;18.260;2024-01-15T10:09:04;11.98;;;6.07;;
49051;SDS011;34866;48.670;18.260;2024-01-15T10:11:30;15.38;;;8.02;;
49051;SDS011;34866;48.670;18.260;2024-01-15T10:13:58;15.98;;;6.10;;
49051;SDS011;34866;48.670;18.260;2024-01-15T10:16:23;11.07;;;6.60;;
49051;SDS011;34866;48.670;18.260;2024-01-15T10:18:49;13.95;;;6.78;;
49051;SDS011;34866;48.670;18.260;2024-01-15T10:21:15;13.93;;;6.07;;
49051;SDS011;34866;48.670;18.260;2024-01-15T10:23:43;9.75;;;5.13;;
49051;SDS011;34866;48.670;18.260;2024-01-15T10:26:09;12.05;;;5.53;;
49051;SDS011;34866;48.670;18.260;2024-01-15T10:28:37;11.80;;;5.13;;
49051;SDS011;34866;48.670;18.260;2024-01-15T10:31:02;12.27;;;6.53;;
49051;SDS011;34866;48.670;18.260;2024-01-15T10:33:32;9.48;;;5.00;;
49051;SDS011;34866;48.670;18.260;2024-01-15T10:35:58;12.95;;;4.43;;
49051;SDS011;34866;48.670;18.260;2024-01-15T10:38:25;9.68;;;5.50;;
49051;SDS011;34866;48.670;18.260;2024-01-15T10:40:52;10.82;;;5.25;;
49051;SDS011;34866;48.670;18.260;2024-01-15T10:43:19;11.13;;;5.15;;
49051;SDS011;34866;48.670;18.260;2024-01-15T10:45:45;13.52;;;5.03;;
49051;SDS011;34866;48.670;18.260;2024-01-15T10:48:12;9.15;;;4.07;;
49051;SDS011;34866;48.670;18.260;2024-01-15T10:50:39;10.60;;;4.88;;
49051;SDS011;34866;48.670;18.260;2024-01-15T10:53:05;10.85;;;4.75;;
49051;SDS011;34866;48.670;18.260;2024-01-15T10:55:33;12.75;;;4.43;;
49051;SDS011;34866;48.670;18.260;2024-01-15T10:58:01;12.40;;;5.82;;
49051;SDS011;34866;48.670;18.260;2024-01-15T11:00:28;11.07;;;5.03;;
49051;SDS011;34866;48.670;18.260;2024-01-15T11:02:54;8.82;;;4.47;;
49051;SDS011;34866;48.670;18.260;2024-01-15T11:05:20;13.05;;;5.18;;
49051;SDS011;34866;48.670;18.260;2024-01-15T11:07:49;10.25;;;4.00;;
49051;SDS011;34866;48.670;18.260;2024-01-15T11:13:15;9.98;;;5.45;;
49051;SDS011;34866;48.670;18.260;2024-01-15T11:18:43;11.68;;;5.15;;
49051;SDS011;34866;48.670;18.260;2024-01-15T11:21:26;9.65;;;4.68;;
49051;SDS011;34866;48.670;18.260;2024-01-15T11:23:58;12.55;;;5.53;;
49051;SDS011;34866;48.670;18.260;2024-01-15T11:26:43;13.27;;;5.47;;
49051;SDS011;34866;48.670;18.260;2024-01-15T11:29:10;9.93;;;5.75;;
49051;SDS011;34866;48.670;18.260;2024-01-15T11:34:21;7.65;;;4.60;;
49051;SDS011;34866;48.670;18.260;2024-01-15T11:37:08;8.68;;;4.30;;
49051;SDS011;34866;48.670;18.260;2024-01-15T11:42:07;12.93;;;5.05;;
49051;SDS011;34866;48.670;18.260;2024-01-15T11:44:34;7.60;;;4.55;;
49051;SDS011;34866;48.670;18.260;2024-01-15T11:47:01;9.88;;;3.33;;
49051;SDS011;34866;48.670;18.260;2024-01-15T11:52:18;8.82;;;3.78;;
49051;SDS011;34866;48.670;18.260;2024-01-15T11:54:49;8.25;;;4.20;;
49051;SDS011;34866;48.670;18.260;2024-01-15T11:57:19;7.50;;;4.00;;
49051;SDS011;34866;48.670;18.260;2024-01-15T11:59:52;9.27;;;3.87;;
49051;SDS011;34866;48.670;18.260;2024-01-15T12:02:18;5.82;;;3.22;;
49051;SDS011;34866;48.670;18.260;2024-01-15T12:04:44;7.00;;;3.70;;
49051;SDS011;34866;48.670;18.260;2024-01-15T12:07:09;8.50;;;3.92;;
49051;SDS011;34866;48.670;18.260;2024-01-15T12:09:35;11.63;;;4.90;;
49051;SDS011;34866;48.670;18.260;2024-01-15T12:12:08;8.23;;;4.00;;
49051;SDS011;34866;48.670;18.260;2024-01-15T12:14:40;9.85;;;4.25;;
49051;SDS011;34866;48.670;18.260;2024-01-15T12:17:06;12.57;;;4.10;;
49051;SDS011;34866;48.670;18.260;2024-01-15T12:19:32;10.40;;;4.03;;
49051;SDS011;34866;48.670;18.260;2024-01-15T12:21:57;9.90;;;4.18;;
49051;SDS011;34866;48.670;18.260;2024-01-15T12:24:23;6.93;;;3.97;;
49051;SDS011;34866;48.670;18.260;2024-01-15T12:26:48;13.23;;;3.85;;
49051;SDS011;34866;48.670;18.260;2024-01-15T12:29:14;7.45;;;3.47;;
49051;SDS011;34866;48.670;18.260;2024-01-15T12:31:43;9.05;;;3.58;;
49051;SDS011;34866;48.670;18.260;2024-01-15T12:34:11;9.18;;;4.03;;
49051;SDS011;34866;48.670;18.260;2024-01-15T12:36:37;8.50;;;3.15;;
49051;SDS011;34866;48.670;18.260;2024-01-15T12:39:02;5.32;;;3.25;;
49051;SDS011;34866;48.670;18.260;2024-01-15T12:41:28;12.73;;;3.10;;
49051;SDS011;34866;48.670;18.260;2024-01-15T12:43:54;7.68;;;3.60;;
49051;SDS011;34866;48.670;18.260;2024-01-15T12:46:19;7.13;;;3.40;;
49051;SDS011;34866;48.670;18.260;2024-01-15T12:48:45;8.70;;;4.43;;
49051;SDS011;34866;48.670;18.260;2024-01-15T12:51:11;12.10;;;4.25;;
49051;SDS011;34866;48.670;18.260;2024-01-15T12:53:36;7.28;;;4.13;;
49051;SDS011;34866;48.670;18.260;2024-01-15T12:56:02;6.35;;;3.63;;
49051;SDS011;34866;48.670;18.260;2024-01-15T12:58:28;7.28;;;3.47;;
49051;SDS011;34866;48.670;18.260;2024-01-15T13:00:54;7.13;;;3.67;;
49051;SDS011;34866;48.670;18.260;2024-01-15T13:03:19;9.70;;;3.42;;
49051;SDS011;34866;48.670;18.260;2024-01-15T13:05:45;9.18;;;3.10;;
49051;SDS011;34866;48.670;18.260;2024-01-15T13:08:11;7.45;;;3.15;;
49051;SDS011;34866;48.670;18.260;2024-01-15T13:10:37;6.40;;;3.53;;
49051;SDS011;34866;48.670;18.260;2024-01-15T13:13:02;8.20;;;4.45;;
49051;SDS011;34866;48.670;18.260;2024-01-15T13:15:28;7.68;;;3.92;;
49051;SDS011;34866;48.670;18.260;2024-01-15T13:17:54;9.07;;;3.10;;
49051;SDS011;34866;48.670;18.260;2024-01-15T13:20:20;8.88;;;3.63;;
49051;SDS011;34866;48.670;18.260;2024-01-15T13:22:47;9.80;;;3.75;;
49051;SDS011;34866;48.670;18.260;2024-01-15T13:25:12;6.82;;;3.40;;
49051;SDS011;34866;48.670;18.260;2024-01-15T13:27:38;8.23;;;3.75;;
49051;SDS011;34866;48.670;18.260;2024-01-15T13:30:04;6.05;;;3.22;;
49051;SDS011;34866;48.670;18.260;2024-01-15T13:32:31;7.28;;;3.95;;
49051;SDS011;34866;48.670;18.260;2024-01-15T13:34:57;7.20;;;3.35;;
49051;SDS011;34866;48.670;18.260;2024-01-15T13:37:23;10.48;;;4.07;;
49051;SDS011;34866;48.670;18.260;2024-01-15T13:39:52;9.90;;;3.63;;
49051;SDS011;34866;48.670;18.260;2024-01-15T13:42:19;7.25;;;3.42;;
49051;SDS011;34866;48.670;18.260;2024-01-15T13:44:48;7.28;;;3.45;;
49051;SDS011;34866;48.670;18.260;2024-01-15T13:47:14;6.55;;;3.08;;
49051;SDS011;34866;48.670;18.260;2024-01-15T13:49:39;7.53;;;3.28;;
49051;SDS011;34866;48.670;18.260;2024-01-15T13:52:05;7.57;;;3.53;;
49051;SDS011;34866;48.670;18.260;2024-01-15T13:54:31;11.48;;;4.15;;
49051;SDS011;34866;48.670;18.260;2024-01-15T13:56:57;16.33;;;3.58;;
49051;SDS011;34866;48.670;18.260;2024-01-15T13:59:24;7.40;;;3.42;;
49051;SDS011;34866;48.670;18.260;2024-01-15T14:01:50;7.15;;;3.72;;
49051;SDS011;34866;48.670;18.260;2024-01-15T14:04:15;7.78;;;3.67;;
49051;SDS011;34866;48.670;18.260;2024-01-15T14:06:41;10.13;;;3.67;;
49051;SDS011;34866;48.670;18.260;2024-01-15T14:09:07;8.20;;;3.65;;
49051;SDS011;34866;48.670;18.260;2024-01-15T14:11:35;8.30;;;3.50;;
49051;SDS011;34866;48.670;18.260;2024-01-15T14:14:02;6.55;;;3.33;;
49051;SDS011;34866;48.670;18.260;2024-01-15T14:16:28;8.50;;;3.50;;
49051;SDS011;34866;48.670;18.260;2024-01-15T14:18:54;8.73;;;3.55;;
49051;SDS011;34866;48.670;18.260;2024-01-15T14:21:19;7.90;;;3.33;;
49051;SDS011;34866;48.670;18.260;2024-01-15T14:23:45;7.05;;;2.92;;
49051;SDS011;34866;48.670;18.260;2024-01-15T14:26:10;6.80;;;3.33;;
49051;SDS011;34866;48.670;18.260;2024-01-15T14:28:36;4.78;;;2.80;;
49051;SDS011;34866;48.670;18.260;2024-01-15T14:31:02;7.00;;;3.28;;
49051;SDS011;34866;48.670;18.260;2024-01-15T14:33:30;6.65;;;2.88;;